Time;durP1;ratioP1;P1;durP2;ratioP2;P2;SDS_P1;SDS_P2;PMS_P1;PMS_P2;Temp;Humidity;BMP_temperature;BMP_pressure;BME280_temperature;BME280_humidity;BME280_pressure;Samples;Min_cycle;Max_cycle;Signal;HPM_P1;HPM_P2
2022/04/08 00:03:46;;;;;;;10.77;1.38;;;;;;;4.64;100.00;99090.59;10386079;28;20037;-77
2022/04/08 00:08:50;;;;;;;7.05;2.20;;;;;;;4.68;100.00;99114.63;10341828;28;20116;-78
2022/04/08 00:13:53;;;;;;;4.47;1.15;;;;;;;4.77;100.00;99132.16;10359113;28;20036;-77
2022/04/08 00:18:53;;;;;;;12.85;1.83;;;;;;;4.79;100.00;99135.44;10359355;28;20037;-77
2022/04/08 00:23:54;;;;;;;15.02;2.13;;;;;;;4.82;100.00;99143.94;10359055;28;20038;-77
2022/04/08 00:28:54;;;;;;;7.93;1.25;;;;;;;4.71;100.00;99153.06;10358301;28;20514;-75
2022/04/08 00:33:55;;;;;;;9.85;1.45;;;;;;;4.65;100.00;99167.72;10374664;28;20125;-77
2022/04/08 00:38:55;;;;;;;4.20;0.90;;;;;;;4.57;100.00;99177.22;10391447;28;20046;-75
2022/04/08 00:43:56;;;;;;;4.72;0.90;;;;;;;4.45;100.00;99196.44;10357867;28;20387;-75
2022/04/08 00:48:56;;;;;;;3.20;0.90;;;;;;;4.31;100.00;99208.78;10391541;28;20434;-74
2022/04/08 00:53:57;;;;;;;2.60;0.40;;;;;;;4.15;100.00;99235.00;10390281;28;20505;-74
2022/04/08 00:58:57;;;;;;;1.00;0.30;;;;;;;3.88;100.00;99250.44;10388829;28;20042;-72
2022/04/08 01:03:58;;;;;;;3.50;0.35;;;;;;;3.62;100.00;99277.28;10389449;28;20037;-73
2022/04/08 01:08:58;;;;;;;1.33;0.63;;;;;;;3.40;100.00;99269.84;10372245;28;20547;-73
2022/04/08 01:14:09;;;;;;;5.75;0.65;;;;;;;3.38;100.00;99288.31;10389280;28;20041;-73
2022/04/08 01:19:09;;;;;;;3.05;0.50;;;;;;;3.33;100.00;99303.69;10390603;28;20049;-74
2022/04/08 01:24:14;;;;;;;4.22;0.80;;;;;;;3.32;100.00;99316.50;10422638;28;20076;-74
2022/04/08 01:29:15;;;;;;;4.28;0.85;;;;;;;3.20;100.00;99330.16;10377545;28;20108;-73
2022/04/08 01:34:15;;;;;;;6.53;1.15;;;;;;;3.18;100.00;99334.19;10388151;28;20125;-74
2022/04/08 01:39:16;;;;;;;4.80;1.25;;;;;;;3.03;100.00;99343.69;10355270;28;20040;-73
2022/04/08 01:44:16;;;;;;;10.20;1.50;;;;;;;2.97;100.00;99355.53;10390032;28;20053;-74
2022/04/08 01:49:17;;;;;;;9.27;1.50;;;;;;;2.97;100.00;99347.38;10389491;28;20034;-74
2022/04/08 01:54:17;;;;;;;6.38;1.20;;;;;;;2.59;100.00;99277.34;10425097;28;20043;-73
2022/04/08 01:59:18;;;;;;;6.20;0.98;;;;;;;2.92;100.00;99325.53;10428524;28;20045;-72
2022/04/08 02:04:18;;;;;;;12.65;1.40;;;;;;;2.89;100.00;99336.88;10429840;28;20188;-74
2022/04/08 02:09:19;;;;;;;11.07;1.65;;;;;;;2.85;100.00;99338.44;10428000;28;20029;-73
2022/04/08 02:14:19;;;;;;;16.45;3.40;;;;;;;2.93;100.00;99339.97;10412252;28;20505;-73
2022/04/08 02:19:20;;;;;;;13.52;2.10;;;;;;;2.95;100.00;99356.84;10415690;28;20092;-73
2022/04/08 02:24:20;;;;;;;10.70;1.48;;;;;;;2.93;100.00;99354.38;10370119;28;20462;-74
2022/04/08 02:29:21;;;;;;;11.07;1.67;;;;;;;2.84;100.00;99355.81;10385764;28;20460;-74
2022/04/08 02:34:22;;;;;;;8.80;1.40;;;;;;;2.86;100.00;99371.91;10386660;28;20046;-73
2022/04/08 02:39:22;;;;;;;9.32;1.23;;;;;;;2.91;100.00;99383.69;10369064;28;20030;-74
2022/04/08 02:44:23;;;;;;;7.07;1.17;;;;;;;2.82;100.00;99396.00;10402938;28;20042;-72
2022/04/08 02:49:24;;;;;;;9.98;1.88;;;;;;;2.92;100.00;99400.84;10387578;28;20034;-73
2022/04/08 02:54:24;;;;;;;10.90;1.75;;;;;;;2.92;100.00;99401.66;10386309;28;20371;-74
2022/04/08 02:59:25;;;;;;;9.13;2.05;;;;;;;3.02;100.00;99414.66;10385694;28;20038;-72
2022/04/08 03:04:26;;;;;;;6.65;1.23;;;;;;;3.06;100.00;99393.22;10387130;28;20022;-74
2022/04/08 03:09:26;;;;;;;9.02;1.38;;;;;;;2.86;100.00;99394.47;10369445;28;20385;-74
2022/04/08 03:14:26;;;;;;;7.28;0.90;;;;;;;2.76;100.00;99424.97;10370262;28;20030;-73
2022/04/08 03:19:27;;;;;;;8.95;1.10;;;;;;;2.65;100.00;99427.69;10370151;28;20049;-73
2022/04/08 03:24:30;;;;;;;7.38;1.08;;;;;;;2.70;100.00;99461.25;10358719;28;20033;-73
2022/04/08 03:29:31;;;;;;;5.80;1.55;;;;;;;2.79;100.00;99462.56;10418533;28;20053;-74
2022/04/08 03:34:31;;;;;;;4.20;1.42;;;;;;;2.60;100.00;99447.44;10350849;28;20112;-74
2022/04/08 03:39:32;;;;;;;9.75;1.40;;;;;;;2.47;100.00;99453.94;10352495;28;20053;-74
2022/04/08 03:44:32;;;;;;;13.57;2.35;;;;;;;2.40;100.00;99464.09;10392784;28;20088;-74
2022/04/08 03:49:35;;;;;;;9.75;2.33;;;;;;;2.31;100.00;99438.34;10393952;28;20037;-73
2022/04/08 03:54:36;;;;;;;6.82;2.03;;;;;;;2.43;100.00;99452.75;10376351;28;20517;-74
2022/04/08 03:59:37;;;;;;;9.75;1.10;;;;;;;2.35;100.00;99451.19;10375042;28;20057;-74
2022/04/08 04:04:37;;;;;;;11.32;1.10;;;;;;;2.40;100.00;99469.53;10359430;28;20022;-74
2022/04/08 04:09:38;;;;;;;10.82;1.55;;;;;;;2.09;100.00;99452.50;10359598;28;20033;-74
2022/04/08 04:14:38;;;;;;;15.48;1.77;;;;;;;2.17;100.00;99484.72;10360145;28;20030;-74
2022/04/08 04:19:39;;;;;;;8.63;1.58;;;;;;;2.27;100.00;99496.91;10343815;28;20043;-74
2022/04/08 04:24:39;;;;;;;16.35;1.80;;;;;;;2.40;100.00;99502.13;10370132;28;20056;-74
2022/04/08 04:29:40;;;;;;;6.93;1.30;;;;;;;2.67;100.00;99537.81;10398154;28;20053;-74
2022/04/08 04:34:40;;;;;;;6.63;1.20;;;;;;;2.63;100.00;99504.84;10382019;28;20037;-72
2022/04/08 04:39:42;;;;;;;5.72;1.30;;;;;;;2.30;100.00;99512.75;10415246;28;20332;-73
2022/04/08 04:44:43;;;;;;;5.72;1.50;;;;;;;1.99;100.00;99501.91;10416195;28;20038;-71
2022/04/08 04:49:43;;;;;;;11.07;2.85;;;;;;;1.90;100.00;99503.31;10432804;28;20044;-73
2022/04/08 04:54:44;;;;;;;6.03;1.77;;;;;;;1.94;100.00;99525.38;10397378;28;20091;-73
2022/04/08 04:59:44;;;;;;;4.43;1.30;;;;;;;1.92;100.00;99527.50;10381592;28;20041;-73
2022/04/08 05:04:44;;;;;;;9.98;1.60;;;;;;;2.00;100.00;99530.69;10396539;28;20042;-73
2022/04/08 05:09:45;;;;;;;5.07;1.38;;;;;;;2.05;100.00;99540.88;10397850;28;20029;-74
2022/04/08 05:14:45;;;;;;;5.55;1.25;;;;;;;1.94;100.00;99537.09;10384423;28;20022;-73
2022/04/08 05:19:46;;;;;;;4.50;1.20;;;;;;;1.85;100.00;99526.78;10391036;28;20034;-73
2022/04/08 05:24:46;;;;;;;7.50;1.02;;;;;;;1.98;100.00;99537.44;10371777;28;20033;-74
2022/04/08 05:29:47;;;;;;;6.65;1.45;;;;;;;2.05;100.00;99543.59;10391267;28;20057;-73
2022/04/08 05:34:47;;;;;;;4.00;1.30;;;;;;;2.22;100.00;99551.91;10396454;28;20026;-74
2022/04/08 05:39:48;;;;;;;5.13;1.30;;;;;;;2.20;100.00;99546.72;10429645;28;20056;-74
2022/04/08 05:44:48;;;;;;;6.47;0.93;;;;;;;2.27;100.00;99533.03;10381580;28;20052;-76
2022/04/08 05:49:49;;;;;;;1.88;1.52;;;;;;;2.40;100.00;99546.41;10411302;28;20033;-73
2022/04/08 05:54:49;;;;;;;4.22;1.58;;;;;;;2.50;100.00;99540.41;10371682;28;20168;-73
2022/04/08 05:59:50;;;;;;;5.70;1.40;;;;;;;2.69;100.00;99557.44;10355217;28;20038;-74
2022/04/08 06:04:50;;;;;;;11.23;2.85;;;;;;;2.69;100.00;99567.47;10371513;28;20057;-74
2022/04/08 06:09:52;;;;;;;8.23;1.27;;;;;;;2.65;100.00;99569.00;10411646;28;20094;-74
2022/04/08 06:14:53;;;;;;;3.45;0.82;;;;;;;2.62;100.00;99557.56;10396436;28;20039;-74
2022/04/08 06:19:57;;;;;;;1.92;0.95;;;;;;;2.68;100.00;99530.50;10396145;28;20109;-72
2022/04/08 06:24:57;;;;;;;9.00;1.42;;;;;;;2.92;100.00;99553.91;10416976;28;20026;-74
2022/04/08 06:29:58;;;;;;;6.65;1.40;;;;;;;2.92;100.00;99559.34;10369754;28;20089;-74
2022/04/08 06:34:58;;;;;;;2.88;0.90;;;;;;;3.10;100.00;99557.53;10354113;28;20042;-74
2022/04/08 06:40:03;;;;;;;6.82;1.42;;;;;;;3.42;100.00;99577.03;10368680;28;20030;-74
2022/04/08 06:45:05;;;;;;;5.72;1.23;;;;;;;3.55;100.00;99548.72;10388539;28;20029;-74
2022/04/08 06:50:06;;;;;;;10.18;1.58;;;;;;;3.70;100.00;99570.81;10352949;28;20041;-74
2022/04/08 06:55:07;;;;;;;6.32;1.58;;;;;;;3.81;100.00;99572.66;10367615;28;20069;-74
2022/04/08 07:00:09;;;;;;;4.57;1.02;;;;;;;3.78;100.00;99545.94;10379394;28;20036;-74
2022/04/08 07:05:10;;;;;;;11.05;1.35;;;;;;;4.08;100.00;99555.75;10426227;28;20052;-72
2022/04/08 07:10:10;;;;;;;7.85;2.35;;;;;;;4.09;100.00;99551.13;10441521;28;20037;-73
2022/04/08 07:15:11;;;;;;;5.28;1.25;;;;;;;4.33;100.00;99562.75;10398630;28;20021;-74
2022/04/08 07:20:13;;;;;;;5.53;1.55;;;;;;;4.46;100.00;99556.97;10421098;28;20496;-74
2022/04/08 07:25:14;;;;;;;5.00;1.20;;;;;;;4.60;100.00;99562.94;10399614;28;20133;-74
2022/04/08 07:30:17;;;;;;;5.85;1.25;;;;;;;4.82;100.00;99566.56;10432249;28;20080;-73
2022/04/08 07:35:26;;;;;;;6.88;1.95;;;;;;;4.88;100.00;99564.75;10452822;28;20068;-74
2022/04/08 07:40:27;;;;;;;3.13;1.25;;;;;;;4.85;100.00;99536.06;10421540;28;20335;-75
2022/04/08 07:45:29;;;;;;;4.95;1.23;;;;;;;5.09;100.00;99545.97;10437931;28;20025;-74
2022/04/08 07:50:29;;;;;;;7.47;2.22;;;;;;;5.49;100.00;99563.97;10419956;28;20032;-73
2022/04/08 07:55:30;;;;;;;17.27;2.33;;;;;;;5.35;100.00;99552.59;10419566;28;20036;-74
2022/04/08 08:00:32;;;;;;;3.67;1.40;;;;;;;5.57;100.00;99522.59;10401215;28;20025;-73
2022/04/08 08:05:33;;;;;;;8.05;1.27;;;;;;;5.67;100.00;99560.94;10418863;28;20033;-75
2022/04/08 08:10:38;;;;;;;6.30;2.03;;;;;;;5.58;100.00;99559.72;10405339;28;20177;-73
2022/04/08 08:15:41;;;;;;;1.88;0.80;;;;;;;6.06;100.00;99574.53;10430370;28;20044;-74
2022/04/08 08:20:42;;;;;;;4.15;1.20;;;;;;;5.77;100.00;99516.53;10451236;28;20029;-74
2022/04/08 08:25:44;;;;;;;5.40;1.05;;;;;;;5.39;100.00;99527.25;10449760;28;20052;-74
2022/04/08 08:30:45;;;;;;;4.28;1.08;;;;;;;5.57;100.00;99588.09;10433478;28;20043;-74
2022/04/08 08:35:47;;;;;;;3.95;0.90;;;;;;;5.88;100.00;99577.56;10418000;28;20037;-74
2022/04/08 08:40:48;;;;;;;3.75;0.93;;;;;;;6.35;100.00;99586.03;10435717;28;20029;-75
2022/04/08 08:45:49;;;;;;;5.90;1.27;;;;;;;6.15;100.00;99575.72;10417927;28;20063;-75
2022/04/08 08:50:52;;;;;;;5.25;1.20;;;;;;;6.31;100.00;99595.03;10433995;28;20071;-74
2022/04/08 08:55:53;;;;;;;4.45;1.17;;;;;;;6.46;100.00;99589.69;10431207;28;20092;-74
2022/04/08 09:00:53;;;;;;;6.65;0.98;;;;;;;6.65;100.00;99599.16;10445978;28;20033;-75
2022/04/08 09:05:54;;;;;;;5.10;1.27;;;;;;;6.96;100.00;99585.75;10422703;28;20025;-75
2022/04/08 09:10:54;;;;;;;3.33;1.23;;;;;;;7.22;100.00;99566.78;10396900;28;20034;-74
2022/04/08 09:15:59;;;;;;;3.92;1.52;;;;;;;7.44;100.00;99559.25;10395887;28;20113;-74
2022/04/08 09:20:59;;;;;;;8.00;2.47;;;;;;;7.68;100.00;99534.94;10393967;28;20030;-75
2022/04/08 09:26:01;;;;;;;2.85;1.13;;;;;;;8.13;100.00;99545.53;10428255;28;20026;-75
2022/04/08 09:31:02;;;;;;;4.05;1.17;;;;;;;7.08;100.00;99559.00;10412198;28;20069;-74
2022/04/08 09:36:03;;;;;;;8.95;1.42;;;;;;;6.59;100.00;99559.19;10378577;28;20041;-75
2022/04/08 09:41:06;;;;;;;5.43;1.02;;;;;;;6.86;100.00;99550.09;10378347;28;20025;-74
2022/04/08 09:46:13;;;;;;;3.65;1.20;;;;;;;7.67;100.00;99540.72;10394435;28;20029;-75
2022/04/08 09:51:21;;;;;;;6.53;1.08;;;;;;;7.71;100.00;99541.00;10410974;28;20117;-75
2022/04/08 09:56:23;;;;;;;5.80;1.58;;;;;;;6.33;100.00;99563.59;10393599;28;20025;-75
2022/04/08 10:01:25;;;;;;;2.90;0.70;;;;;;;5.56;100.00;99570.91;10393275;28;20052;-74
2022/04/08 10:06:27;;;;;;;5.25;1.70;;;;;;;5.11;100.00;99561.00;10379621;28;20087;-74
2022/04/08 10:11:30;;;;;;;4.03;1.83;;;;;;;5.91;100.00;99564.19;10385169;28;20040;-74
2022/04/08 10:16:31;;;;;;;4.40;1.23;;;;;;;6.60;100.00;99560.84;10385035;28;20034;-74
2022/04/08 10:21:40;;;;;;;3.25;0.80;;;;;;;6.25;100.00;99567.63;10352954;28;20103;-73
2022/04/08 10:26:57;;;;;;;2.83;0.98;;;;;;;5.77;100.00;99571.16;10424113;28;20041;-75
2022/04/08 10:31:58;;;;;;;;;;;;;;;5.75;100.00;99568.69;10395049;28;20053;-74
2022/04/08 10:37:00;;;;;;;5.07;0.82;;;;;;;6.13;100.00;99558.75;10426248;28;19924;-74
2022/04/08 10:42:00;;;;;;;5.35;1.02;;;;;;;6.92;100.00;99540.84;10392809;28;20025;-74
2022/04/08 10:47:21;;;;;;;2.95;0.73;;;;;;;7.53;100.00;99536.81;10374979;28;20033;-74
2022/04/08 10:52:23;;;;;;;11.50;2.42;;;;;;;7.71;100.00;99525.41;10391277;28;20018;-74
2022/04/08 10:57:41;;;;;;;3.97;1.00;;;;;;;8.22;100.00;99525.50;10394178;28;20030;-73
2022/04/08 11:02:43;;;;;;;7.20;0.95;;;;;;;7.82;100.00;99535.28;10426269;28;20053;-76
2022/04/08 11:07:45;;;;;;;5.03;0.80;;;;;;;7.05;100.00;99539.56;10409093;28;20132;-75
2022/04/08 11:12:46;;;;;;;5.20;1.50;;;;;;;6.96;100.00;99541.16;10408482;28;20048;-78
2022/04/08 11:17:47;;;;;;;3.65;0.90;;;;;;;7.76;100.00;99508.97;10408684;28;20030;-78
2022/04/08 11:22:48;;;;;;;6.22;1.38;;;;;;;8.40;100.00;99517.88;10391540;28;20057;-78
2022/04/08 11:28:03;;;;;;;2.38;0.65;;;;;;;9.20;100.00;99526.34;10409775;28;20490;-78
2022/04/08 11:33:14;;;;;;;6.88;0.90;;;;;;;9.82;100.00;99532.44;10424341;28;20038;-79
2022/04/08 11:38:18;;;;;;;8.13;0.85;;;;;;;9.00;100.00;99546.41;10361277;28;21270;-78
2022/04/08 11:43:19;;;;;;;6.47;0.70;;;;;;;8.23;100.00;99534.56;10368483;28;20018;-79
2022/04/08 11:48:21;;;;;;;6.10;0.93;;;;;;;7.76;100.00;99541.84;10367444;28;20036;-79
2022/04/08 11:53:22;;;;;;;2.45;0.82;;;;;;;7.87;100.00;99520.78;10364470;28;20031;-79
2022/04/08 11:58:23;;;;;;;7.35;1.70;;;;;;;8.66;100.00;99513.22;10380022;28;20025;-79
2022/04/08 12:03:27;;;;;;;5.47;0.95;;;;;;;8.60;100.00;99506.09;10382868;28;20117;-80
2022/04/08 12:08:28;;;;;;;5.72;1.02;;;;;;;8.20;100.00;99492.06;10389968;28;20056;-80
2022/04/08 12:13:29;;;;;;;2.92;0.90;;;;;;;8.56;100.00;99510.47;10406628;28;20026;-77
2022/04/08 12:18:32;;;;;;;3.35;1.17;;;;;;;9.49;100.00;99501.81;10390592;28;20245;-82
2022/04/08 12:23:33;;;;;;;6.28;1.33;;;;;;;10.14;100.00;99495.41;10389163;28;20029;-82
2022/04/08 12:28:35;;;;;;;2.33;0.63;;;;;;;9.99;100.00;99470.78;10385889;28;20072;-79
2022/04/08 12:33:36;;;;;;;10.27;1.40;;;;;;;10.87;96.86;99463.47;10377575;28;20508;-79
2022/04/08 12:38:40;;;;;;;4.63;0.70;;;;;;;11.48;90.06;99454.50;10431034;28;20028;-79
2022/04/08 12:43:40;;;;;;;3.17;0.98;;;;;;;12.17;87.52;99454.13;10442470;28;20033;-80
2022/04/08 12:48:41;;;;;;;5.90;1.10;;;;;;;12.64;84.39;99427.38;10428413;28;20034;-77
2022/04/08 12:53:41;;;;;;;6.47;0.70;;;;;;;11.82;83.27;99431.44;10398353;28;20021;-77
2022/04/08 12:58:42;;;;;;;6.32;0.80;;;;;;;10.55;87.50;99451.09;10396832;28;20029;-77
2022/04/08 13:03:42;;;;;;;6.70;1.13;;;;;;;9.95;88.38;99456.75;10450453;28;20022;-77
2022/04/08 13:08:43;;;;;;;5.13;0.93;;;;;;;9.99;92.43;99454.28;10435177;28;20074;-77
2022/04/08 13:13:43;;;;;;;4.90;1.27;;;;;;;10.39;82.18;99425.66;10412776;28;20033;-79
2022/04/08 13:18:44;;;;;;;4.13;1.00;;;;;;;11.40;79.66;99411.06;10413185;28;20026;-76
2022/04/08 13:23:45;;;;;;;4.15;1.42;;;;;;;11.61;80.90;99436.41;10396779;28;20055;-77
2022/04/08 13:28:45;;;;;;;6.03;1.02;;;;;;;11.93;81.99;99400.97;10376127;28;20056;-75
2022/04/08 13:33:46;;;;;;;6.38;0.70;;;;;;;12.21;80.35;99438.59;10411355;28;20085;-76
2022/04/08 13:38:46;;;;;;;7.38;1.38;;;;;;;11.97;76.96;99430.44;10411095;28;20037;-76
2022/04/08 13:43:46;;;;;;;6.93;1.20;;;;;;;10.89;79.31;99447.47;10427439;28;20033;-76
2022/04/08 13:48:47;;;;;;;5.43;1.10;;;;;;;11.01;77.83;99447.88;10394351;28;20013;-76
2022/04/08 13:53:47;;;;;;;5.72;0.93;;;;;;;11.01;77.84;99447.06;10411645;28;20033;-75
2022/04/08 13:58:48;;;;;;;5.65;0.80;;;;;;;11.36;74.70;99443.09;10426867;28;20053;-76
2022/04/08 14:03:48;;;;;;;4.78;0.93;;;;;;;11.31;74.53;99424.69;10409026;28;20022;-76
2022/04/08 14:08:49;;;;;;;8.25;0.60;;;;;;;10.73;75.51;99430.31;10426741;28;20029;-76
2022/04/08 14:13:49;;;;;;;3.83;0.68;;;;;;;10.37;75.74;99452.63;10392438;28;20088;-73
2022/04/08 14:18:50;;;;;;;3.60;0.68;;;;;;;10.82;75.79;99449.75;10409495;28;20037;-75
2022/04/08 14:23:51;;;;;;;6.30;0.70;;;;;;;10.66;72.52;99418.81;10393100;28;20037;-76
2022/04/08 14:28:51;;;;;;;6.43;1.02;;;;;;;10.62;70.45;99431.50;10409378;28;20475;-77
2022/04/08 14:33:52;;;;;;;5.40;0.70;;;;;;;11.10;68.38;99417.78;10425969;28;20029;-75
2022/04/08 14:38:52;;;;;;;4.78;0.65;;;;;;;12.24;67.72;99420.66;10425576;28;20075;-76
2022/04/08 14:43:53;;;;;;;4.32;0.50;;;;;;;12.80;63.37;99414.13;10375913;28;20401;-74
2022/04/08 14:48:54;;;;;;;4.50;0.73;;;;;;;12.46;64.27;99408.94;10426138;28;20025;-76
2022/04/08 14:53:55;;;;;;;1.92;0.60;;;;;;;13.64;63.33;99398.34;10393365;28;20033;-78
2022/04/08 14:58:55;;;;;;;5.63;0.77;;;;;;;13.30;62.89;99417.03;10392506;28;20029;-77
2022/04/08 15:03:56;;;;;;;4.47;0.65;;;;;;;12.16;63.69;99446.16;10391963;28;20034;-75
2022/04/08 15:08:56;;;;;;;5.53;0.73;;;;;;;10.66;69.10;99463.66;10392192;28;20049;-76
2022/04/08 15:13:57;;;;;;;4.93;0.98;;;;;;;10.84;70.92;99473.13;10408539;28;20037;-75
2022/04/08 15:18:57;;;;;;;3.40;0.70;;;;;;;11.27;70.36;99472.41;10409572;28;20033;-74
2022/04/08 15:23:58;;;;;;;6.03;0.70;;;;;;;11.41;71.03;99473.34;10376359;28;20026;-75
2022/04/08 15:28:59;;;;;;;4.25;0.80;;;;;;;10.81;71.26;99478.38;10372434;28;20071;-75
2022/04/08 15:33:59;;;;;;;2.05;0.70;;;;;;;9.96;71.33;99333.88;10424085;28;20087;-76
2022/04/08 15:39:00;;;;;;;8.25;0.70;;;;;;;10.11;73.08;99496.00;10394005;28;20036;-76
2022/04/08 15:44:00;;;;;;;6.22;0.90;;;;;;;9.25;75.40;99500.78;10415894;28;20037;-75
2022/04/08 15:49:01;;;;;;;7.78;1.27;;;;;;;8.73;78.87;99526.69;10434983;28;20026;-75
2022/04/08 15:54:05;;;;;;;9.70;2.13;;;;;;;8.19;80.37;99528.00;10399304;28;20025;-75
2022/04/08 15:59:06;;;;;;;6.65;1.08;;;;;;;8.64;81.23;99524.50;10388703;28;20037;-76
2022/04/08 16:04:06;;;;;;;6.03;0.95;;;;;;;9.80;78.48;99520.91;10395738;28;20056;-75
2022/04/08 16:09:07;;;;;;;5.90;1.15;;;;;;;10.19;76.75;99511.03;10397786;28;20053;-76
2022/04/08 16:14:07;;;;;;;5.05;1.00;;;;;;;10.41;74.69;99505.16;10431925;28;20204;-76
2022/04/08 16:19:08;;;;;;;7.47;1.23;;;;;;;10.08;74.55;99518.53;10383213;28;20036;-75
2022/04/08 16:24:08;;;;;;;4.55;0.82;;;;;;;10.21;75.77;99517.09;10415009;28;20022;-75
2022/04/08 16:29:09;;;;;;;8.35;1.52;;;;;;;9.34;77.20;99521.06;10380198;28;20041;-76
2022/04/08 16:34:10;;;;;;;8.57;1.02;;;;;;;8.88;81.15;99554.09;10376752;28;20220;-75
2022/04/08 16:39:10;;;;;;;9.55;1.25;;;;;;;8.69;83.27;99565.63;10355979;28;20397;-74
2022/04/08 16:44:11;;;;;;;14.25;4.40;;;;;;;8.69;85.19;99571.13;10359133;28;20026;-75
2022/04/08 16:49:11;;;;;;;5.00;1.08;;;;;;;8.53;84.16;99583.19;10358742;28;20084;-75
2022/04/08 16:54:12;;;;;;;5.80;1.08;;;;;;;8.24;80.31;99569.94;10396563;28;20038;-76
2022/04/08 16:59:12;;;;;;;5.03;0.80;;;;;;;7.89;80.51;99587.09;10417354;28;20080;-76
2022/04/08 17:04:13;;;;;;;10.98;1.30;;;;;;;7.53;83.25;99592.41;10356342;28;20030;-75
2022/04/08 17:09:13;;;;;;;6.38;1.13;;;;;;;7.23;84.20;99584.84;10388646;28;20030;-76
2022/04/08 17:14:14;;;;;;;6.30;1.10;;;;;;;7.17;87.60;99605.91;10387025;28;20037;-76
2022/04/08 17:19:14;;;;;;;5.18;1.20;;;;;;;6.82;100.00;99617.34;10355656;28;20112;-76
2022/04/08 17:24:15;;;;;;;8.57;1.35;;;;;;;6.50;100.00;99629.09;10395817;28;20025;-75
2022/04/08 17:29:16;;;;;;;6.35;1.20;;;;;;;5.76;100.00;99548.47;10413332;28;20046;-76
2022/04/08 17:34:16;;;;;;;6.70;2.10;;;;;;;6.09;100.00;99627.84;10403544;28;20101;-76
2022/04/08 17:39:17;;;;;;;7.35;1.52;;;;;;;6.11;100.00;99618.28;10391060;28;20057;-77
2022/04/08 17:44:17;;;;;;;7.32;1.40;;;;;;;6.01;100.00;99631.84;10394690;28;20034;-76
2022/04/08 17:49:18;;;;;;;8.90;2.42;;;;;;;5.96;100.00;99629.06;10391882;28;21174;-76
2022/04/08 17:54:18;;;;;;;11.90;1.35;;;;;;;5.92;100.00;99633.34;10362341;28;20069;-76
2022/04/08 17:59:19;;;;;;;5.32;1.60;;;;;;;5.89;100.00;99640.16;10407648;28;20038;-76
2022/04/08 18:04:19;;;;;;;7.93;1.58;;;;;;;5.85;100.00;99650.75;10402475;28;20040;-76
2022/04/08 18:09:20;;;;;;;9.82;1.80;;;;;;;5.75;100.00;99653.34;10408131;28;20509;-76
2022/04/08 18:14:21;;;;;;;10.77;2.33;;;;;;;5.71;100.00;99632.25;10390670;28;20057;-75
2022/04/08 18:19:21;;;;;;;15.35;2.45;;;;;;;5.73;100.00;99641.84;10370613;28;20049;-76
2022/04/08 18:24:21;;;;;;;12.40;1.85;;;;;;;5.85;100.00;99648.00;10400493;28;20056;-75
2022/04/08 18:29:22;;;;;;;13.15;1.52;;;;;;;5.83;100.00;99622.03;10354788;28;20076;-77
2022/04/08 18:34:23;;;;;;;9.00;2.42;;;;;;;5.87;100.00;99645.03;10366342;28;20042;-77
2022/04/08 18:39:23;;;;;;;7.38;1.80;;;;;;;5.95;100.00;99649.25;10362387;28;20065;-76
2022/04/08 18:44:25;;;;;;;9.27;1.70;;;;;;;5.92;100.00;99664.22;10350191;28;20133;-76
2022/04/08 18:49:25;;;;;;;12.30;2.17;;;;;;;5.89;100.00;99661.16;10334779;28;20045;-78
2022/04/08 18:54:26;;;;;;;9.80;2.17;;;;;;;5.85;100.00;99669.03;10350873;28;20423;-76
2022/04/08 18:59:27;;;;;;;9.43;2.17;;;;;;;5.76;100.00;99668.63;10367355;28;20026;-76
2022/04/08 19:04:30;;;;;;;15.50;2.40;;;;;;;5.70;100.00;99675.09;10378972;28;20033;-75
2022/04/08 19:09:34;;;;;;;20.40;2.20;;;;;;;5.49;100.00;99667.72;10382111;28;20496;-78
2022/04/08 19:14:34;;;;;;;6.20;2.10;;;;;;;5.41;100.00;99677.94;10382070;28;20022;-75
2022/04/08 19:19:34;;;;;;;10.88;1.83;;;;;;;5.18;100.00;99668.06;10398567;28;20025;-75
2022/04/08 19:24:35;;;;;;;16.10;3.60;;;;;;;5.14;100.00;99699.63;10398601;28;20025;-76
2022/04/08 19:29:36;;;;;;;10.20;2.38;;;;;;;4.95;100.00;99685.41;10414043;28;20072;-75
2022/04/08 19:34:36;;;;;;;9.15;1.85;;;;;;;4.80;100.00;99666.06;10369816;28;20037;-76
2022/04/08 19:39:37;;;;;;;12.82;1.98;;;;;;;4.95;100.00;99698.22;10385951;28;20033;-76
2022/04/08 19:44:38;;;;;;;11.52;2.22;;;;;;;4.99;100.00;99691.19;10373889;28;20041;-76
2022/04/08 19:49:38;;;;;;;7.97;2.15;;;;;;;4.97;100.00;99688.72;10399196;28;20469;-75
2022/04/08 19:54:39;;;;;;;15.38;2.38;;;;;;;4.79;100.00;99708.84;10383385;28;20093;-77
2022/04/08 19:59:39;;;;;;;11.20;1.92;;;;;;;4.61;100.00;99703.59;10399967;28;20030;-76
2022/04/08 20:04:40;;;;;;;14.50;2.97;;;;;;;4.41;100.00;99701.31;10399860;28;20037;-76
2022/04/08 20:09:41;;;;;;;13.88;2.47;;;;;;;4.30;100.00;99703.03;10432759;28;20025;-77
2022/04/08 20:14:41;;;;;;;10.80;2.33;;;;;;;4.33;100.00;99704.44;10383648;28;20036;-76
2022/04/08 20:19:42;;;;;;;8.07;1.90;;;;;;;4.24;100.00;99706.72;10397930;28;20032;-76
2022/04/08 20:24:42;;;;;;;10.98;1.88;;;;;;;4.17;100.00;99701.38;10412993;28;20018;-76
2022/04/08 20:29:45;;;;;;;6.93;1.70;;;;;;;4.08;100.00;99708.28;10394720;28;20205;-75
2022/04/08 20:34:45;;;;;;;12.13;2.03;;;;;;;4.02;100.00;99710.06;10395190;28;20496;-75
2022/04/08 20:39:46;;;;;;;8.00;2.42;;;;;;;4.03;100.00;99706.28;10382187;28;20026;-76
2022/04/08 20:44:47;;;;;;;15.68;2.53;;;;;;;4.28;100.00;99726.97;10414780;28;20029;-77
2022/04/08 20:49:47;;;;;;;4.63;0.85;;;;;;;4.26;100.00;99718.19;10395996;28;20030;-76
2022/04/08 20:54:48;;;;;;;5.63;1.02;;;;;;;3.96;100.00;99726.53;10431976;28;20022;-76
2022/04/08 20:59:48;;;;;;;7.43;1.60;;;;;;;3.69;100.00;99727.03;10378987;28;20017;-77
2022/04/08 21:04:49;;;;;;;11.32;1.70;;;;;;;3.44;100.00;99711.75;10429810;28;20473;-76
2022/04/08 21:09:50;;;;;;;11.85;2.10;;;;;;;3.39;100.00;99716.25;10380908;28;20088;-76
2022/04/08 21:14:50;;;;;;;7.18;2.20;;;;;;;3.37;100.00;99707.50;10379775;28;20091;-76
2022/04/08 21:19:51;;;;;;;11.60;2.25;;;;;;;3.48;100.00;99719.47;10396773;28;20052;-76
2022/04/08 21:24:51;;;;;;;12.90;2.38;;;;;;;3.56;100.00;99732.72;10413559;28;20034;-76
2022/04/08 21:29:52;;;;;;;10.85;2.63;;;;;;;3.65;100.00;99742.19;10389465;28;20064;-76
2022/04/08 21:34:52;;;;;;;8.55;2.45;;;;;;;3.69;100.00;99737.91;10346259;28;20026;-75
2022/04/08 21:39:53;;;;;;;8.90;1.85;;;;;;;3.61;100.00;99730.09;10356669;28;20052;-75
2022/04/08 21:44:53;;;;;;;8.85;2.08;;;;;;;3.67;100.00;99761.00;10357064;28;20030;-76
2022/04/08 21:49:54;;;;;;;9.43;2.10;;;;;;;3.45;100.00;99750.69;10355685;28;20498;-76
2022/04/08 21:55:43;;;;;;;8.75;2.28;;;;;;;3.31;100.00;99755.53;10355297;28;20037;-76
2022/04/08 22:00:30;;;;;;;17.90;3.00;;;;;;;3.27;100.00;99784.25;10374164;28;20038;-77
2022/04/08 22:05:30;;;;;;;11.85;2.50;;;;;;;3.16;100.00;99780.47;10372423;28;20033;-76
2022/04/08 22:10:31;;;;;;;13.10;2.38;;;;;;;3.28;100.00;99796.78;10371781;28;20032;-76
2022/04/08 22:15:33;;;;;;;15.10;1.75;;;;;;;3.21;100.00;99780.56;10354950;28;20479;-76
2022/04/08 22:20:35;;;;;;;10.43;1.83;;;;;;;3.43;100.00;99799.91;10387005;28;20042;-76
2022/04/08 22:25:35;;;;;;;6.53;1.60;;;;;;;3.38;100.00;99796.22;10354389;28;20089;-75
2022/04/08 22:30:36;;;;;;;9.70;2.53;;;;;;;3.28;100.00;99806.84;10354038;28;20046;-75
2022/04/08 22:35:36;;;;;;;8.55;2.40;;;;;;;3.38;100.00;99832.41;10371216;28;20030;-76
2022/04/08 22:40:37;;;;;;;10.88;1.77;;;;;;;3.41;100.00;99848.28;10337422;28;20085;-75
2022/04/08 22:45:38;;;;;;;5.97;1.52;;;;;;;3.43;100.00;99843.44;10351235;28;20042;-75
2022/04/08 22:50:39;;;;;;;7.72;2.55;;;;;;;3.60;100.00;99873.53;10353892;28;20041;-76
2022/04/08 22:55:40;;;;;;;13.80;1.73;;;;;;;3.33;100.00;99821.41;10370159;28;20061;-79
2022/04/08 23:00:40;;;;;;;10.00;1.67;;;;;;;3.55;100.00;99880.72;10353939;28;20034;-75
2022/04/08 23:05:41;;;;;;;10.32;2.15;;;;;;;3.48;100.00;99889.00;10353720;28;20073;-76
2022/04/08 23:10:41;;;;;;;11.93;1.48;;;;;;;3.42;100.00;99900.81;10363277;28;20029;-76
2022/04/08 23:15:42;;;;;;;14.25;1.85;;;;;;;3.30;100.00;99900.75;10377499;28;20030;-76
2022/04/08 23:20:42;;;;;;;13.00;3.47;;;;;;;3.01;100.00;99867.88;10377432;28;20030;-76